Metamorfosi, Greece

2:18 AM EET on February 15, 2016 (GMT +0200)
n iraklio | | Change Station
CLOSE
Current Station
Personal Weather Station
Location: N Irakllio Attikis, GR
Elevation: 630 ft
Nearby Weather Stations

Elev 630 ft 38.05 °N, 23.76 °E | Updated 4 seconds ago

Mostly Cloudy
Mostly Cloudy
60.0 °F
Feels Like 60.0 °F
N
1.7
Wind Variable Wind from WSW
Gusts 2.0 mph

Today
High -- | Low -- °F
--% Chance of Precip.
Yesterday
High -- | Low -- °F
Precip. -- in
Pressure 29.89 in
Visibility 6.2 miles
Clouds Few 2500 ft
Scattered Clouds 7000 ft
Mostly Cloudy 18000 ft
Dew Point 52 °F
Humidity 74%
Rainfall 0.00 in
Snow Depth Not available.
7:15 AM 6:02 PM
Waxing Crescent, 47% visible
METAR LGEL 142350Z VRB03KT 9999 FEW025 SCT070 BKN180 16/11 Q1012
Pressure 29.89 in
Visibility 6.2 miles
Clouds Few 2500 ft
Scattered Clouds 7000 ft
Mostly Cloudy 18000 ft
Dew Point 52 °F
Humidity 74%
Rainfall 0.00 in
Snow Depth Not available.
7:15 AM 6:02 PM
Waxing Crescent, 47% visible
METAR LGEL 142350Z VRB03KT 9999 FEW025 SCT070 BKN180 16/11 Q1012

10-Day Weather Forecast

Almanac

Astronomy

Feb. 15, 2016 Rise Set
Actual Time
Civil Twilight
Nautical Twilight
Astronomical Twilight
Moon
Length of Visible Light
Length of Day
Tomorrow will be .
, % of the Moon is Illuminated

Today's Extremes

Country Highs Country Lows

Community

WunderPhotos

Upload Photos

1,892,938 photos uploaded!

WunderBlog® & News

Nearby

Air Quality

  Air Quality AQ Index Pollutant
Not available.

Snow Depth

Station Depth Elevation

Earthquake Activity

City Distance Mag. Time & Date
Minimum magnitude displayed is 2.5.

Coastal Water Temperatures

Place Temperature

Stations

Nearby Weather Stations

Station Location Temp. Windchill Dew Point Humidity Wind Precip. Elev Updated Type